createdAt,value
2023-05-05T00:02:10.764Z,10.58
2023-05-05T00:05:14.199Z,10.81
2023-05-05T00:08:18.192Z,11.56
2023-05-05T00:11:22.064Z,12.37
2023-05-05T00:14:26.878Z,12.62
2023-05-05T00:17:30.206Z,12.48
2023-05-05T00:20:33.430Z,12.30
2023-05-05T00:23:36.676Z,12.29
2023-05-05T00:26:39.804Z,12.50
2023-05-05T00:29:43.009Z,12.53
2023-05-05T00:32:49.277Z,12.41
2023-05-05T00:35:52.505Z,12.19
2023-05-05T00:38:55.755Z,12.04
2023-05-05T00:42:00.066Z,12.42
2023-05-05T00:45:03.256Z,13.13
2023-05-05T00:48:07.442Z,13.65
2023-05-05T00:51:11.022Z,14.09
2023-05-05T00:54:14.181Z,14.30
2023-05-05T00:57:17.947Z,14.15
2023-05-05T01:00:21.151Z,13.88
2023-05-05T01:03:24.370Z,13.55
2023-05-05T01:07:02.825Z,13.56
2023-05-05T01:10:20.352Z,13.54
2023-05-05T01:13:27.622Z,13.48
2023-05-05T01:16:35.221Z,13.37
2023-05-05T01:19:51.734Z,13.31
2023-05-05T01:23:00.354Z,13.17
2023-05-05T01:26:25.383Z,13.20
2023-05-05T01:29:42.197Z,13.32
2023-05-05T01:32:55.993Z,13.44
2023-05-05T01:36:11.370Z,13.62
2023-05-05T01:39:17.394Z,13.73
2023-05-05T01:42:23.160Z,13.88
2023-05-05T01:45:29.451Z,14.00
2023-05-05T01:48:34.089Z,14.13
2023-05-05T01:51:38.461Z,14.32
2023-05-05T01:54:43.176Z,14.41
2023-05-05T01:57:48.363Z,14.49
2023-05-05T02:00:53.894Z,14.69
2023-05-05T02:04:00.127Z,15.00
2023-05-05T02:07:05.716Z,15.28
2023-05-05T02:10:11.022Z,15.34
2023-05-05T02:13:16.137Z,15.54
2023-05-05T02:16:20.564Z,15.70
2023-05-05T02:19:30.001Z,15.67
2023-05-05T02:22:33.908Z,15.67
2023-05-05T02:25:42.035Z,15.77
2023-05-05T02:29:03.930Z,15.90
2023-05-05T02:32:12.448Z,15.98
2023-05-05T02:35:28.227Z,15.96
2023-05-05T02:38:32.802Z,15.89
2023-05-05T02:41:40.107Z,15.93
2023-05-05T02:44:51.696Z,15.98
2023-05-05T02:47:55.672Z,15.96
2023-05-05T02:50:59.722Z,15.71
2023-05-05T02:54:08.198Z,15.34
2023-05-05T02:57:15.417Z,15.27
2023-05-05T03:00:29.221Z,15.31
2023-05-05T03:03:41.721Z,15.42
2023-05-05T03:06:50.905Z,15.38
2023-05-05T03:10:05.015Z,15.39
2023-05-05T03:13:12.374Z,15.20
2023-05-05T03:16:20.223Z,15.17
2023-05-05T03:19:24.565Z,15.14
2023-05-05T03:22:36.408Z,15.24
2023-05-05T03:25:47.726Z,15.44
2023-05-05T03:28:59.364Z,15.62
2023-05-05T03:32:07.109Z,15.79
2023-05-05T03:35:10.735Z,15.98
2023-05-05T03:38:13.938Z,16.28
2023-05-05T03:41:18.622Z,16.57
2023-05-05T03:44:21.991Z,16.68
2023-05-05T03:47:25.429Z,16.82
2023-05-05T03:50:29.988Z,16.93
2023-05-05T03:53:33.191Z,16.89
2023-05-05T03:56:38.801Z,16.65
2023-05-05T03:59:42.033Z,16.46
2023-05-05T04:02:45.819Z,16.19
2023-05-05T04:05:52.175Z,15.96
2023-05-05T04:08:56.291Z,15.91
2023-05-05T04:11:59.551Z,15.95
2023-05-05T04:15:03.023Z,16.15
2023-05-05T04:18:06.579Z,16.54
2023-05-05T04:21:09.862Z,16.93
2023-05-05T04:24:13.930Z,17.27
2023-05-05T04:27:17.178Z,17.37
2023-05-05T04:30:21.096Z,17.39
2023-05-05T04:33:24.365Z,17.34
2023-05-05T04:36:28.134Z,17.38
2023-05-05T04:39:33.839Z,17.49
2023-05-05T04:42:38.299Z,17.39
2023-05-05T04:45:42.016Z,17.24
2023-05-05T04:48:45.781Z,17.07
2023-05-05T04:51:49.419Z,16.99
2023-05-05T04:54:52.662Z,16.72
2023-05-05T04:57:56.112Z,16.65
2023-05-05T05:01:00.113Z,16.67
2023-05-05T05:04:03.438Z,16.60
2023-05-05T05:07:06.651Z,16.56
2023-05-05T05:10:10.578Z,16.61
2023-05-05T05:13:13.941Z,16.59
2023-05-05T05:16:17.310Z,16.51
2023-05-05T05:19:21.282Z,16.06
2023-05-05T05:22:25.521Z,15.74
2023-05-05T05:25:29.325Z,15.76
2023-05-05T05:28:32.503Z,15.59
2023-05-05T05:31:37.417Z,15.45
2023-05-05T05:34:40.841Z,15.59
2023-05-05T05:37:46.566Z,15.59
2023-05-05T05:40:50.876Z,15.55
2023-05-05T05:43:54.285Z,15.68
2023-05-05T05:46:57.716Z,15.67
2023-05-05T05:50:01.468Z,15.46
2023-05-05T05:53:05.683Z,15.26
2023-05-05T05:56:09.599Z,15.36
2023-05-05T05:59:13.224Z,15.54
2023-05-05T06:02:17.953Z,15.62
2023-05-05T06:05:21.996Z,15.65
2023-05-05T06:08:28.179Z,15.56
2023-05-05T06:11:35.610Z,15.56
2023-05-05T06:14:38.951Z,15.73
2023-05-05T06:17:42.210Z,16.08
2023-05-05T06:20:45.556Z,16.43
2023-05-05T06:23:51.599Z,16.63
2023-05-05T06:26:55.193Z,16.70
2023-05-05T06:29:58.358Z,16.50
2023-05-05T06:33:01.637Z,16.31
2023-05-05T06:36:05.160Z,16.22
2023-05-05T06:39:08.439Z,16.33
2023-05-05T06:42:11.860Z,16.65
2023-05-05T06:45:15.132Z,16.78
2023-05-05T06:48:19.046Z,16.90
2023-05-05T06:51:23.386Z,16.97
2023-05-05T06:54:26.749Z,17.13
2023-05-05T06:57:29.901Z,17.37
2023-05-05T07:00:33.048Z,17.62
2023-05-05T07:03:36.512Z,17.80
2023-05-05T07:06:39.674Z,17.77
2023-05-05T07:09:42.940Z,17.53
2023-05-05T07:12:47.064Z,17.26
2023-05-05T07:15:50.489Z,17.26
2023-05-05T07:18:53.746Z,17.41
2023-05-05T07:21:56.872Z,17.66
2023-05-05T07:25:00.072Z,17.84
2023-05-05T07:28:03.357Z,17.41
2023-05-05T07:31:06.622Z,17.14
2023-05-05T07:34:09.746Z,16.99
2023-05-05T07:37:12.939Z,16.80
2023-05-05T07:40:16.407Z,16.76
2023-05-05T07:43:19.577Z,16.80
2023-05-05T07:46:22.694Z,16.95
2023-05-05T07:49:26.048Z,17.11
2023-05-05T07:52:44.176Z,17.32
2023-05-05T07:55:49.493Z,17.51
2023-05-05T07:58:52.601Z,17.63
2023-05-05T08:01:55.785Z,17.56
2023-05-05T08:04:58.948Z,17.34
2023-05-05T08:08:02.215Z,17.44
2023-05-05T08:11:07.080Z,17.43
2023-05-05T08:14:10.366Z,17.37
2023-05-05T08:17:13.541Z,17.36
2023-05-05T08:20:18.187Z,17.47
2023-05-05T08:23:21.766Z,17.62
2023-05-05T08:26:25.412Z,17.49
2023-05-05T08:29:28.731Z,17.52
2023-05-05T08:32:32.908Z,17.56
2023-05-05T08:35:36.204Z,17.42
2023-05-05T08:38:40.530Z,17.08
2023-05-05T08:41:43.861Z,17.02
2023-05-05T08:44:47.150Z,17.01
2023-05-05T08:47:50.372Z,16.88
2023-05-05T08:51:00.360Z,16.68
2023-05-05T08:54:07.781Z,16.37
2023-05-05T08:57:11.957Z,16.21
2023-05-05T09:00:18.645Z,16.37
2023-05-05T09:03:22.159Z,16.39
2023-05-05T09:06:27.573Z,16.29
2023-05-05T09:09:31.736Z,16.06
2023-05-05T09:12:35.252Z,15.80
2023-05-05T09:15:39.629Z,15.88
2023-05-05T09:18:43.402Z,15.92
2023-05-05T09:21:50.289Z,16.00
2023-05-05T09:24:57.499Z,15.86
2023-05-05T09:28:10.559Z,15.90
2023-05-05T09:31:16.892Z,15.66
2023-05-05T09:34:20.105Z,15.46
2023-05-05T09:37:32.574Z,15.45
2023-05-05T09:40:49.681Z,15.39
2023-05-05T09:43:53.441Z,15.24
2023-05-05T09:46:58.896Z,15.15
2023-05-05T09:50:02.588Z,15.02
2023-05-05T09:53:05.759Z,14.98
2023-05-05T09:56:09.280Z,15.00
2023-05-05T09:59:12.895Z,15.05
2023-05-05T10:02:16.275Z,15.10
2023-05-05T10:05:20.233Z,15.11
2023-05-05T10:08:41.844Z,15.00
2023-05-05T10:11:48.126Z,15.04
2023-05-05T10:14:57.372Z,15.08
2023-05-05T10:18:07.455Z,15.08
2023-05-05T10:21:13.449Z,15.07
2023-05-05T10:24:28.102Z,15.15
2023-05-05T10:27:38.186Z,15.34
2023-05-05T10:30:47.164Z,15.38
2023-05-05T10:34:06.748Z,15.31
2023-05-05T10:37:12.299Z,15.18
2023-05-05T10:40:16.778Z,15.16
2023-05-05T10:43:20.363Z,15.10
2023-05-05T10:46:24.388Z,14.94
2023-05-05T10:49:46.083Z,14.81
2023-05-05T10:52:59.582Z,14.68
2023-05-05T10:56:19.412Z,14.59
2023-05-05T10:59:37.952Z,14.46
2023-05-05T11:02:42.561Z,14.19
2023-05-05T11:06:06.588Z,14.04
2023-05-05T11:09:42.776Z,13.82
2023-05-05T11:13:03.228Z,13.64
2023-05-05T11:16:27.059Z,13.51
2023-05-05T11:19:45.925Z,13.41
2023-05-05T11:23:05.195Z,13.26
2023-05-05T11:26:09.734Z,13.06
2023-05-05T11:29:12.952Z,12.91
2023-05-05T11:32:16.684Z,12.76
2023-05-05T11:35:20.114Z,12.65
2023-05-05T11:38:30.950Z,12.54
2023-05-05T11:41:34.136Z,12.43
2023-05-05T11:44:37.545Z,12.33
2023-05-05T11:47:40.799Z,12.25
2023-05-05T11:50:44.298Z,12.15
2023-05-05T11:53:52.536Z,12.09
2023-05-05T11:56:59.756Z,12.00
2023-05-05T12:00:08.211Z,11.92
2023-05-05T12:03:12.779Z,11.82
2023-05-05T12:06:16.185Z,11.73
2023-05-05T12:09:21.308Z,11.65
2023-05-05T12:12:43.693Z,11.58
2023-05-05T12:15:47.248Z,11.43
2023-05-05T12:19:11.123Z,11.29
2023-05-05T12:22:22.138Z,11.07
2023-05-05T12:25:25.439Z,10.85
2023-05-05T12:28:46.012Z,10.63
2023-05-05T12:31:49.439Z,10.41
2023-05-05T12:35:01.376Z,10.25
2023-05-05T12:38:18.637Z,10.18
2023-05-05T12:41:35.200Z,10.02
2023-05-05T12:44:42.565Z,9.92
2023-05-05T12:47:48.903Z,9.82
2023-05-05T12:50:53.198Z,9.74
2023-05-05T12:54:26.130Z,9.76
2023-05-05T12:57:29.890Z,9.70
2023-05-05T13:00:37.989Z,9.62
2023-05-05T13:03:45.592Z,9.48
2023-05-05T13:06:59.215Z,9.39
2023-05-05T13:10:12.536Z,9.37
2023-05-05T13:13:18.710Z,9.26
2023-05-05T13:16:52.201Z,9.25
2023-05-05T13:19:55.877Z,9.23
2023-05-05T13:23:03.521Z,9.24
2023-05-05T13:26:07.645Z,9.27
2023-05-05T13:29:11.665Z,9.29
2023-05-05T13:32:15.449Z,9.29
2023-05-05T13:35:19.368Z,9.26
2023-05-05T13:38:22.570Z,9.15
2023-05-05T13:41:26.744Z,9.03
2023-05-05T13:44:30.172Z,8.97
2023-05-05T13:47:33.322Z,8.88
2023-05-05T13:50:36.622Z,8.78
2023-05-05T13:53:44.363Z,8.70
2023-05-05T13:56:47.615Z,8.64
2023-05-05T13:59:50.859Z,8.57
2023-05-05T14:02:56.691Z,8.52
2023-05-05T14:06:00.717Z,8.48
2023-05-05T14:09:06.657Z,8.47
2023-05-05T14:12:09.812Z,8.47
2023-05-05T14:15:13.155Z,8.49
2023-05-05T14:18:16.304Z,8.54
2023-05-05T14:21:22.278Z,8.61
2023-05-05T14:24:25.555Z,8.61
2023-05-05T14:27:31.428Z,8.61
2023-05-05T14:30:34.650Z,8.57
2023-05-05T14:33:37.879Z,8.52
2023-05-05T14:36:41.928Z,8.41
2023-05-05T14:39:45.119Z,8.31
2023-05-05T14:42:51.852Z,8.26
2023-05-05T14:45:55.178Z,8.19
2023-05-05T14:48:59.469Z,8.13
2023-05-05T14:52:02.944Z,8.01
2023-05-05T14:55:06.738Z,7.89
2023-05-05T14:58:09.910Z,7.81
2023-05-05T15:01:13.349Z,7.75
2023-05-05T15:04:17.613Z,7.72
2023-05-05T15:07:21.991Z,7.64
2023-05-05T15:10:25.285Z,7.55
2023-05-05T15:13:28.516Z,7.48
2023-05-05T15:16:33.773Z,7.38
2023-05-05T15:19:38.177Z,7.31
2023-05-05T15:22:41.625Z,7.23
2023-05-05T15:25:44.806Z,7.14
2023-05-05T15:28:49.745Z,7.06
2023-05-05T15:31:53.505Z,6.93
2023-05-05T15:34:57.024Z,6.86
2023-05-05T15:38:00.270Z,6.85
2023-05-05T15:41:03.428Z,6.82
2023-05-05T15:44:06.821Z,6.75
2023-05-05T15:47:11.580Z,6.66
2023-05-05T15:50:15.016Z,6.61
2023-05-05T15:53:18.239Z,6.54
2023-05-05T15:56:21.423Z,6.47
2023-05-05T15:59:24.582Z,6.38
2023-05-05T16:02:27.989Z,6.36
2023-05-05T16:05:31.275Z,6.41
2023-05-05T16:08:35.505Z,6.47
2023-05-05T16:11:38.660Z,6.55
2023-05-05T16:14:41.886Z,6.60
2023-05-05T16:17:45.157Z,6.68
2023-05-05T16:20:48.485Z,6.73
2023-05-05T16:23:51.785Z,6.80
2023-05-05T16:26:55.065Z,6.85
2023-05-05T16:29:59.722Z,6.90
2023-05-05T16:33:03.135Z,6.91
2023-05-05T16:36:06.661Z,6.88
2023-05-05T16:39:09.827Z,6.84
2023-05-05T16:42:13.902Z,6.77
2023-05-05T16:45:17.193Z,6.78
2023-05-05T16:48:20.783Z,6.80
2023-05-05T16:51:24.290Z,6.83
2023-05-05T16:54:27.457Z,6.80
2023-05-05T16:57:30.728Z,6.72
2023-05-05T17:00:33.985Z,6.72
2023-05-05T17:03:37.156Z,6.71
2023-05-05T17:06:40.482Z,6.76
2023-05-05T17:09:43.703Z,6.78
2023-05-05T17:12:46.995Z,6.72
2023-05-05T17:15:50.306Z,6.68
2023-05-05T17:18:55.290Z,6.66
2023-05-05T17:21:58.237Z,6.72
2023-05-05T17:25:01.383Z,6.71
2023-05-05T17:28:04.632Z,6.69
2023-05-05T17:31:07.832Z,6.68
2023-05-05T17:34:11.256Z,6.70
2023-05-05T17:37:14.493Z,6.70
2023-05-05T17:40:17.663Z,6.69
2023-05-05T17:43:20.972Z,6.64
2023-05-05T17:46:24.152Z,6.57
2023-05-05T17:49:27.466Z,6.52
2023-05-05T17:52:30.705Z,6.45
2023-05-05T17:55:33.929Z,6.35
2023-05-05T17:58:37.080Z,6.29
2023-05-05T18:01:40.316Z,6.27
2023-05-05T18:04:44.060Z,6.27
2023-05-05T18:07:47.397Z,6.24
2023-05-05T18:10:50.495Z,6.19
2023-05-05T18:13:53.740Z,6.15
2023-05-05T18:16:56.948Z,6.10
2023-05-05T18:20:00.112Z,6.07
2023-05-05T18:23:03.268Z,6.03
2023-05-05T18:26:06.961Z,5.95
2023-05-05T18:29:10.368Z,5.85
2023-05-05T18:32:13.499Z,5.77
2023-05-05T18:35:16.828Z,5.67
2023-05-05T18:38:20.262Z,5.59
2023-05-05T18:41:23.410Z,5.53
2023-05-05T18:44:26.663Z,5.48
2023-05-05T18:47:30.004Z,5.44
2023-05-05T18:50:33.926Z,5.40
2023-05-05T18:53:37.109Z,5.41
2023-05-05T18:56:40.571Z,5.41
2023-05-05T18:59:43.674Z,5.38
2023-05-05T19:02:47.114Z,5.39
2023-05-05T19:05:50.428Z,5.43
2023-05-05T19:08:53.656Z,5.39
2023-05-05T19:11:56.940Z,5.33
2023-05-05T19:15:00.184Z,5.28
2023-05-05T19:18:03.396Z,5.22
2023-05-05T19:21:06.611Z,5.19
2023-05-05T19:24:10.491Z,5.13
2023-05-05T19:27:16.361Z,5.08
2023-05-05T19:30:20.074Z,5.05
2023-05-05T19:33:23.730Z,5.07
2023-05-05T19:36:26.958Z,5.04
2023-05-05T19:39:30.109Z,4.96
2023-05-05T19:42:33.336Z,4.89
2023-05-05T19:45:36.537Z,4.85
2023-05-05T19:48:39.812Z,4.80
2023-05-05T19:51:43.402Z,4.77
2023-05-05T19:54:46.775Z,4.78
2023-05-05T19:57:49.910Z,4.75
2023-05-05T20:00:53.013Z,4.69
2023-05-05T20:03:57.292Z,4.63
2023-05-05T20:07:00.644Z,4.55
2023-05-05T20:10:03.827Z,4.50
2023-05-05T20:13:07.065Z,4.45
2023-05-05T20:16:10.396Z,4.53
2023-05-05T20:19:13.730Z,4.57
2023-05-05T20:22:21.142Z,4.58
2023-05-05T20:25:27.537Z,4.52
2023-05-05T20:28:32.288Z,4.50
2023-05-05T20:31:35.660Z,4.56
2023-05-05T20:34:39.847Z,4.62
2023-05-05T20:37:43.221Z,4.64
2023-05-05T20:40:46.427Z,4.67
2023-05-05T20:43:49.599Z,4.70
2023-05-05T20:46:52.858Z,4.70
2023-05-05T20:49:56.077Z,4.73
2023-05-05T20:52:59.792Z,4.75
2023-05-05T20:56:02.989Z,4.74
2023-05-05T20:59:06.768Z,4.73
2023-05-05T21:02:10.081Z,4.77
2023-05-05T21:05:13.332Z,4.77
2023-05-05T21:08:16.733Z,4.76
2023-05-05T21:11:19.865Z,4.79
2023-05-05T21:14:23.824Z,4.82
2023-05-05T21:17:30.419Z,4.89
2023-05-05T21:20:33.602Z,4.95
2023-05-05T21:23:36.861Z,5.03
2023-05-05T21:26:46.582Z,5.08
2023-05-05T21:29:51.896Z,5.12
2023-05-05T21:32:54.999Z,5.12
2023-05-05T21:35:58.329Z,5.19
2023-05-05T21:39:01.614Z,5.24
2023-05-05T21:42:04.972Z,5.28
2023-05-05T21:45:08.676Z,5.36
2023-05-05T21:48:14.554Z,5.39
2023-05-05T21:51:18.123Z,5.39
2023-05-05T21:54:21.219Z,5.39
2023-05-05T21:57:24.569Z,5.43
2023-05-05T22:00:27.961Z,6.97
2023-05-05T22:03:31.265Z,9.78
2023-05-05T22:06:34.552Z,12.57
2023-05-05T22:09:38.017Z,14.82
2023-05-05T22:12:41.733Z,16.58
2023-05-05T22:15:47.261Z,17.99
2023-05-05T22:18:51.204Z,19.22
2023-05-05T22:21:55.412Z,20.03
2023-05-05T22:24:58.626Z,21.01
2023-05-05T22:28:01.846Z,21.01
2023-05-05T22:31:05.463Z,21.35
2023-05-05T22:34:09.097Z,21.25
2023-05-05T22:37:12.226Z,21.78
2023-05-05T22:40:15.444Z,22.18
2023-05-05T22:43:18.547Z,22.48
2023-05-05T22:46:21.842Z,22.81
2023-05-05T22:49:25.051Z,23.14
2023-05-05T22:52:29.659Z,23.56
2023-05-05T22:55:32.579Z,25.68
2023-05-05T22:58:35.736Z,24.62
2023-05-05T23:01:38.950Z,24.68
2023-05-05T23:04:42.480Z,25.13
2023-05-05T23:07:45.868Z,25.58
2023-05-05T23:10:49.116Z,25.97
2023-05-05T23:13:52.286Z,26.38
2023-05-05T23:16:55.523Z,26.68
2023-05-05T23:19:58.844Z,26.48
2023-05-05T23:23:02.012Z,26.52
2023-05-05T23:26:05.498Z,27.16
2023-05-05T23:29:08.756Z,27.44
2023-05-05T23:32:12.003Z,27.58
2023-05-05T23:35:15.235Z,27.53
2023-05-05T23:38:18.433Z,27.33
2023-05-05T23:41:21.685Z,27.75
2023-05-05T23:44:24.997Z,27.75
2023-05-05T23:47:28.264Z,27.70
2023-05-05T23:50:31.584Z,27.94
2023-05-05T23:53:34.784Z,28.04
2023-05-05T23:56:38.140Z,28.12
2023-05-05T23:59:41.323Z,28.00
